sensor_id;sensor_type;location;lat;lon;timestamp;temperature;humidity
22623;DHT22;11478;51.094;7.030;2022-07-21T00:00:19;18.30;99.90
22623;DHT22;11478;51.094;7.030;2022-07-21T00:02:49;18.30;99.90
22623;DHT22;11478;51.094;7.030;2022-07-21T00:05:15;18.20;99.90
22623;DHT22;11478;51.094;7.030;2022-07-21T00:07:43;18.30;99.90
22623;DHT22;11478;51.094;7.030;2022-07-21T00:10:12;18.20;99.90
22623;DHT22;11478;51.094;7.030;2022-07-21T00:12:40;18.20;99.90
22623;DHT22;11478;51.094;7.030;2022-07-21T00:15:10;18.30;99.90
22623;DHT22;11478;51.094;7.030;2022-07-21T00:17:37;18.30;99.90
22623;DHT22;11478;51.094;7.030;2022-07-21T00:20:04;18.30;99.90
22623;DHT22;11478;51.094;7.030;2022-07-21T00:22:33;18.30;99.90
22623;DHT22;11478;51.094;7.030;2022-07-21T00:24:59;18.30;99.90
22623;DHT22;11478;51.094;7.030;2022-07-21T00:27:25;18.20;99.90
22623;DHT22;11478;51.094;7.030;2022-07-21T00:29:52;18.20;99.90
22623;DHT22;11478;51.094;7.030;2022-07-21T00:32:19;18.20;99.90
22623;DHT22;11478;51.094;7.030;2022-07-21T00:34:45;18.20;99.90
22623;DHT22;11478;51.094;7.030;2022-07-21T00:37:12;18.20;99.90
22623;DHT22;11478;51.094;7.030;2022-07-21T00:39:38;18.20;99.90
22623;DHT22;11478;51.094;7.030;2022-07-21T00:42:33;18.20;99.90
22623;DHT22;11478;51.094;7.030;2022-07-21T00:45:01;18.20;99.90
22623;DHT22;11478;51.094;7.030;2022-07-21T00:47:37;18.20;99.90
22623;DHT22;11478;51.094;7.030;2022-07-21T00:50:08;18.10;99.90
22623;DHT22;11478;51.094;7.030;2022-07-21T00:52:34;18.20;99.90
22623;DHT22;11478;51.094;7.030;2022-07-21T00:55:06;18.20;99.90
22623;DHT22;11478;51.094;7.030;2022-07-21T00:57:37;18.20;99.90
22623;DHT22;11478;51.094;7.030;2022-07-21T01:00:12;18.20;99.90
22623;DHT22;11478;51.094;7.030;2022-07-21T01:02:43;18.10;99.90
22623;DHT22;11478;51.094;7.030;2022-07-21T01:05:16;18.10;99.90
22623;DHT22;11478;51.094;7.030;2022-07-21T01:07:50;18.10;99.90
22623;DHT22;11478;51.094;7.030;2022-07-21T01:10:18;18.10;99.90
22623;DHT22;11478;51.094;7.030;2022-07-21T01:12:56;18.10;99.90
22623;DHT22;11478;51.094;7.030;2022-07-21T01:15:23;18.10;99.90
22623;DHT22;11478;51.094;7.030;2022-07-21T01:17:49;18.10;99.90
22623;DHT22;11478;51.094;7.030;2022-07-21T01:20:22;18.10;99.90
22623;DHT22;11478;51.094;7.030;2022-07-21T01:22:52;18.10;99.90
22623;DHT22;11478;51.094;7.030;2022-07-21T01:25:21;18.00;99.90
22623;DHT22;11478;51.094;7.030;2022-07-21T01:27:47;18.00;99.90
22623;DHT22;11478;51.094;7.030;2022-07-21T01:30:30;17.90;99.90
22623;DHT22;11478;51.094;7.030;2022-07-21T01:32:56;17.90;99.90
22623;DHT22;11478;51.094;7.030;2022-07-21T01:35:31;17.90;99.90
22623;DHT22;11478;51.094;7.030;2022-07-21T01:37:58;17.90;99.90
22623;DHT22;11478;51.094;7.030;2022-07-21T01:40:26;17.90;99.90
22623;DHT22;11478;51.094;7.030;2022-07-21T01:43:11;17.90;99.90
22623;DHT22;11478;51.094;7.030;2022-07-21T01:45:46;17.90;99.90
22623;DHT22;11478;51.094;7.030;2022-07-21T01:48:15;18.00;99.90
22623;DHT22;11478;51.094;7.030;2022-07-21T01:50:41;17.90;99.90
22623;DHT22;11478;51.094;7.030;2022-07-21T01:53:09;17.80;99.90
22623;DHT22;11478;51.094;7.030;2022-07-21T01:55:35;17.80;99.90
22623;DHT22;11478;51.094;7.030;2022-07-21T01:58:05;17.80;99.90
22623;DHT22;11478;51.094;7.030;2022-07-21T02:00:31;17.70;99.90
22623;DHT22;11478;51.094;7.030;2022-07-21T02:02:57;17.70;99.90
22623;DHT22;11478;51.094;7.030;2022-07-21T02:05:25;17.70;99.90
22623;DHT22;11478;51.094;7.030;2022-07-21T02:07:51;17.80;99.90
22623;DHT22;11478;51.094;7.030;2022-07-21T02:10:18;17.80;99.90
22623;DHT22;11478;51.094;7.030;2022-07-21T02:12:44;17.80;99.90
22623;DHT22;11478;51.094;7.030;2022-07-21T02:15:21;17.70;99.90
22623;DHT22;11478;51.094;7.030;2022-07-21T02:17:47;17.70;99.90
22623;DHT22;11478;51.094;7.030;2022-07-21T02:20:21;17.70;99.90
22623;DHT22;11478;51.094;7.030;2022-07-21T02:22:49;17.70;99.90
22623;DHT22;11478;51.094;7.030;2022-07-21T02:25:16;17.70;99.90
22623;DHT22;11478;51.094;7.030;2022-07-21T02:27:44;17.70;99.90
22623;DHT22;11478;51.094;7.030;2022-07-21T02:30:11;17.70;99.90
22623;DHT22;11478;51.094;7.030;2022-07-21T02:32:38;17.70;99.90
22623;DHT22;11478;51.094;7.030;2022-07-21T02:35:15;17.70;99.90
22623;DHT22;11478;51.094;7.030;2022-07-21T02:37:43;17.70;99.90
22623;DHT22;11478;51.094;7.030;2022-07-21T02:40:24;17.70;99.90
22623;DHT22;11478;51.094;7.030;2022-07-21T02:42:52;17.70;99.90
22623;DHT22;11478;51.094;7.030;2022-07-21T02:45:21;17.70;99.90
22623;DHT22;11478;51.094;7.030;2022-07-21T02:47:54;17.60;99.90
22623;DHT22;11478;51.094;7.030;2022-07-21T02:50:28;17.60;99.90
22623;DHT22;11478;51.094;7.030;2022-07-21T02:53:01;17.60;99.90
22623;DHT22;11478;51.094;7.030;2022-07-21T02:55:28;17.70;99.90
22623;DHT22;11478;51.094;7.030;2022-07-21T02:58:16;17.60;99.90
22623;DHT22;11478;51.094;7.030;2022-07-21T03:00:45;17.70;99.90
22623;DHT22;11478;51.094;7.030;2022-07-21T03:03:11;17.60;99.90
22623;DHT22;11478;51.094;7.030;2022-07-21T03:05:45;17.70;99.90
22623;DHT22;11478;51.094;7.030;2022-07-21T03:08:11;17.70;99.90
22623;DHT22;11478;51.094;7.030;2022-07-21T03:10:43;17.70;99.90
22623;DHT22;11478;51.094;7.030;2022-07-21T03:13:09;17.70;99.90
22623;DHT22;11478;51.094;7.030;2022-07-21T03:15:37;17.70;99.90
22623;DHT22;11478;51.094;7.030;2022-07-21T03:18:03;17.70;99.90
22623;DHT22;11478;51.094;7.030;2022-07-21T03:20:39;17.70;99.90
22623;DHT22;11478;51.094;7.030;2022-07-21T03:23:05;17.70;99.90
22623;DHT22;11478;51.094;7.030;2022-07-21T03:25:35;17.70;99.90
22623;DHT22;11478;51.094;7.030;2022-07-21T03:28:02;17.70;99.90
22623;DHT22;11478;51.094;7.030;2022-07-21T03:30:34;17.70;99.90
22623;DHT22;11478;51.094;7.030;2022-07-21T03:32:59;17.70;99.90
22623;DHT22;11478;51.094;7.030;2022-07-21T03:35:26;17.70;99.90
22623;DHT22;11478;51.094;7.030;2022-07-21T03:37:54;17.70;99.90
22623;DHT22;11478;51.094;7.030;2022-07-21T03:40:23;17.70;99.90
22623;DHT22;11478;51.094;7.030;2022-07-21T03:42:55;17.70;99.90
22623;DHT22;11478;51.094;7.030;2022-07-21T03:45:22;17.70;99.90
22623;DHT22;11478;51.094;7.030;2022-07-21T03:47:49;17.70;99.90
22623;DHT22;11478;51.094;7.030;2022-07-21T03:50:17;17.70;99.90
22623;DHT22;11478;51.094;7.030;2022-07-21T03:52:44;17.70;99.90
22623;DHT22;11478;51.094;7.030;2022-07-21T03:55:10;17.80;99.90
22623;DHT22;11478;51.094;7.030;2022-07-21T03:57:48;17.70;99.90
22623;DHT22;11478;51.094;7.030;2022-07-21T04:00:26;17.70;99.90
22623;DHT22;11478;51.094;7.030;2022-07-21T04:03:11;17.70;99.90
22623;DHT22;11478;51.094;7.030;2022-07-21T04:05:38;17.80;99.90
22623;DHT22;11478;51.094;7.030;2022-07-21T04:08:08;17.70;99.90
22623;DHT22;11478;51.094;7.030;2022-07-21T04:10:38;17.80;99.90
22623;DHT22;11478;51.094;7.030;2022-07-21T04:13:19;17.70;99.90
22623;DHT22;11478;51.094;7.030;2022-07-21T04:15:48;17.70;99.90
22623;DHT22;11478;51.094;7.030;2022-07-21T04:18:24;17.70;99.90
22623;DHT22;11478;51.094;7.030;2022-07-21T04:23:36;17.70;99.90
22623;DHT22;11478;51.094;7.030;2022-07-21T04:28:55;17.70;99.90
22623;DHT22;11478;51.094;7.030;2022-07-21T04:31:23;17.70;99.90
22623;DHT22;11478;51.094;7.030;2022-07-21T04:33:58;17.70;99.90
22623;DHT22;11478;51.094;7.030;2022-07-21T04:36:28;17.70;99.90
22623;DHT22;11478;51.094;7.030;2022-07-21T04:38:54;17.80;99.90
22623;DHT22;11478;51.094;7.030;2022-07-21T04:41:30;17.80;99.90
22623;DHT22;11478;51.094;7.030;2022-07-21T04:43:58;17.80;99.90
22623;DHT22;11478;51.094;7.030;2022-07-21T04:46:32;17.80;99.90
22623;DHT22;11478;51.094;7.030;2022-07-21T04:48:58;17.90;99.90
22623;DHT22;11478;51.094;7.030;2022-07-21T04:51:27;17.90;99.90
22623;DHT22;11478;51.094;7.030;2022-07-21T04:53:55;17.90;99.90
22623;DHT22;11478;51.094;7.030;2022-07-21T04:58:54;17.90;99.90
22623;DHT22;11478;51.094;7.030;2022-07-21T05:01:19;17.90;99.90
22623;DHT22;11478;51.094;7.030;2022-07-21T05:03:50;17.90;99.90
22623;DHT22;11478;51.094;7.030;2022-07-21T05:06:16;17.90;99.90
22623;DHT22;11478;51.094;7.030;2022-07-21T05:09:04;17.90;99.90
22623;DHT22;11478;51.094;7.030;2022-07-21T05:16:57;18.00;99.90
22623;DHT22;11478;51.094;7.030;2022-07-21T05:22:23;18.00;99.90
22623;DHT22;11478;51.094;7.030;2022-07-21T05:24:51;18.10;99.90
22623;DHT22;11478;51.094;7.030;2022-07-21T05:29:57;18.10;99.90
22623;DHT22;11478;51.094;7.030;2022-07-21T06:58:24;18.40;99.90
22623;DHT22;11478;51.094;7.030;2022-07-21T07:01:06;18.40;99.90
22623;DHT22;11478;51.094;7.030;2022-07-21T07:03:36;18.50;99.90
22623;DHT22;11478;51.094;7.030;2022-07-21T07:06:07;18.60;99.90
22623;DHT22;11478;51.094;7.030;2022-07-21T07:08:36;18.70;99.90
22623;DHT22;11478;51.094;7.030;2022-07-21T07:11:13;18.90;99.90
22623;DHT22;11478;51.094;7.030;2022-07-21T07:13:38;19.00;99.90
22623;DHT22;11478;51.094;7.030;2022-07-21T07:31:39;19.30;99.90
22623;DHT22;11478;51.094;7.030;2022-07-21T07:34:05;19.30;99.90
22623;DHT22;11478;51.094;7.030;2022-07-21T07:36:33;19.40;99.90
22623;DHT22;11478;51.094;7.030;2022-07-21T07:39:02;19.40;99.90
22623;DHT22;11478;51.094;7.030;2022-07-21T07:41:30;19.50;99.90
22623;DHT22;11478;51.094;7.030;2022-07-21T07:43:59;19.50;99.90
22623;DHT22;11478;51.094;7.030;2022-07-21T07:46:31;19.50;99.90
22623;DHT22;11478;51.094;7.030;2022-07-21T07:49:02;19.60;99.90
22623;DHT22;11478;51.094;7.030;2022-07-21T07:51:49;19.70;99.90
22623;DHT22;11478;51.094;7.030;2022-07-21T07:54:20;19.70;99.90
22623;DHT22;11478;51.094;7.030;2022-07-21T07:56:53;19.80;99.90
22623;DHT22;11478;51.094;7.030;2022-07-21T07:59:19;19.80;99.90
22623;DHT22;11478;51.094;7.030;2022-07-21T08:01:45;19.80;99.90
22623;DHT22;11478;51.094;7.030;2022-07-21T08:04:11;19.80;99.90
22623;DHT22;11478;51.094;7.030;2022-07-21T08:06:47;19.80;99.90
22623;DHT22;11478;51.094;7.030;2022-07-21T08:09:15;19.80;99.90
22623;DHT22;11478;51.094;7.030;2022-07-21T08:11:46;19.90;99.90
22623;DHT22;11478;51.094;7.030;2022-07-21T08:14:36;20.00;99.90
22623;DHT22;11478;51.094;7.030;2022-07-21T08:17:31;20.00;99.90
22623;DHT22;11478;51.094;7.030;2022-07-21T08:20:36;20.10;99.90
22623;DHT22;11478;51.094;7.030;2022-07-21T08:23:19;20.10;99.90
22623;DHT22;11478;51.094;7.030;2022-07-21T08:33:25;20.20;99.90
22623;DHT22;11478;51.094;7.030;2022-07-21T08:41:13;20.20;99.90
22623;DHT22;11478;51.094;7.030;2022-07-21T08:46:31;20.20;99.90
22623;DHT22;11478;51.094;7.030;2022-07-21T08:59:33;20.20;99.90
22623;DHT22;11478;51.094;7.030;2022-07-21T09:01:59;20.40;99.90
22623;DHT22;11478;51.094;7.030;2022-07-21T09:09:37;20.60;99.90
22623;DHT22;11478;51.094;7.030;2022-07-21T09:12:07;20.50;99.90
22623;DHT22;11478;51.094;7.030;2022-07-21T09:20:27;20.40;99.90
22623;DHT22;11478;51.094;7.030;2022-07-21T09:28:11;20.40;99.90
22623;DHT22;11478;51.094;7.030;2022-07-21T09:36:25;20.60;99.90
22623;DHT22;11478;51.094;7.030;2022-07-21T09:38:52;20.60;99.90
22623;DHT22;11478;51.094;7.030;2022-07-21T09:41:26;20.60;99.90
22623;DHT22;11478;51.094;7.030;2022-07-21T09:43:54;20.80;99.90
22623;DHT22;11478;51.094;7.030;2022-07-21T09:46:29;20.90;99.90
22623;DHT22;11478;51.094;7.030;2022-07-21T09:48:59;20.80;99.90
22623;DHT22;11478;51.094;7.030;2022-07-21T09:51:33;20.80;99.90
22623;DHT22;11478;51.094;7.030;2022-07-21T09:54:10;20.70;99.90
22623;DHT22;11478;51.094;7.030;2022-07-21T09:56:44;20.80;99.90
22623;DHT22;11478;51.094;7.030;2022-07-21T09:59:12;20.70;99.90
22623;DHT22;11478;51.094;7.030;2022-07-21T10:01:40;20.70;99.90
22623;DHT22;11478;51.094;7.030;2022-07-21T10:04:08;20.70;99.90
22623;DHT22;11478;51.094;7.030;2022-07-21T10:06:38;20.80;99.90
22623;DHT22;11478;51.094;7.030;2022-07-21T10:09:06;20.70;99.90
22623;DHT22;11478;51.094;7.030;2022-07-21T10:11:36;20.70;99.90
22623;DHT22;11478;51.094;7.030;2022-07-21T10:14:11;20.80;99.90
22623;DHT22;11478;51.094;7.030;2022-07-21T10:16:40;20.80;99.90
22623;DHT22;11478;51.094;7.030;2022-07-21T10:19:15;20.80;99.90
22623;DHT22;11478;51.094;7.030;2022-07-21T10:24:53;21.00;99.90
22623;DHT22;11478;51.094;7.030;2022-07-21T10:27:20;21.00;99.90
22623;DHT22;11478;51.094;7.030;2022-07-21T10:30:01;21.10;99.90
22623;DHT22;11478;51.094;7.030;2022-07-21T10:32:49;21.00;99.90
22623;DHT22;11478;51.094;7.030;2022-07-21T10:35:38;21.00;99.90
22623;DHT22;11478;51.094;7.030;2022-07-21T10:38:04;21.00;99.90
22623;DHT22;11478;51.094;7.030;2022-07-21T10:48:01;20.60;99.90
22623;DHT22;11478;51.094;7.030;2022-07-21T10:50:41;20.50;99.90
22623;DHT22;11478;51.094;7.030;2022-07-21T10:53:13;20.40;99.90
22623;DHT22;11478;51.094;7.030;2022-07-21T10:55:50;20.30;99.90
22623;DHT22;11478;51.094;7.030;2022-07-21T11:01:24;20.20;99.90
22623;DHT22;11478;51.094;7.030;2022-07-21T11:04:14;20.10;99.90
22623;DHT22;11478;51.094;7.030;2022-07-21T11:06:45;20.00;99.90
22623;DHT22;11478;51.094;7.030;2022-07-21T11:09:15;20.00;99.90
22623;DHT22;11478;51.094;7.030;2022-07-21T11:12:01;20.00;99.90
22623;DHT22;11478;51.094;7.030;2022-07-21T11:14:42;19.90;99.90
22623;DHT22;11478;51.094;7.030;2022-07-21T11:17:32;19.80;99.90
22623;DHT22;11478;51.094;7.030;2022-07-21T11:19:59;19.80;99.90
22623;DHT22;11478;51.094;7.030;2022-07-21T11:22:29;19.90;99.90
22623;DHT22;11478;51.094;7.030;2022-07-21T11:25:03;19.80;99.90
22623;DHT22;11478;51.094;7.030;2022-07-21T11:27:31;19.80;99.90
22623;DHT22;11478;51.094;7.030;2022-07-21T11:30:03;19.80;99.90
22623;DHT22;11478;51.094;7.030;2022-07-21T11:32:29;19.70;99.90
22623;DHT22;11478;51.094;7.030;2022-07-21T11:35:06;19.70;99.90
22623;DHT22;11478;51.094;7.030;2022-07-21T11:37:38;19.70;99.90
22623;DHT22;11478;51.094;7.030;2022-07-21T11:40:37;19.60;99.90
22623;DHT22;11478;51.094;7.030;2022-07-21T11:43:08;19.60;99.90
22623;DHT22;11478;51.094;7.030;2022-07-21T11:45:34;19.50;99.90
22623;DHT22;11478;51.094;7.030;2022-07-21T11:48:00;19.40;99.90
22623;DHT22;11478;51.094;7.030;2022-07-21T11:50:26;19.30;99.90
22623;DHT22;11478;51.094;7.030;2022-07-21T11:52:54;19.20;99.90
22623;DHT22;11478;51.094;7.030;2022-07-21T11:55:20;19.10;99.90
22623;DHT22;11478;51.094;7.030;2022-07-21T11:57:51;19.10;99.90
22623;DHT22;11478;51.094;7.030;2022-07-21T12:00:19;19.00;99.90
22623;DHT22;11478;51.094;7.030;2022-07-21T12:02:48;18.90;99.90
22623;DHT22;11478;51.094;7.030;2022-07-21T12:05:14;18.90;99.90
22623;DHT22;11478;51.094;7.030;2022-07-21T12:07:50;18.80;99.90
22623;DHT22;11478;51.094;7.030;2022-07-21T12:10:26;18.80;99.90
22623;DHT22;11478;51.094;7.030;2022-07-21T12:13:00;18.70;99.90
22623;DHT22;11478;51.094;7.030;2022-07-21T12:15:28;18.70;99.90
22623;DHT22;11478;51.094;7.030;2022-07-21T12:18:09;18.70;99.90
22623;DHT22;11478;51.094;7.030;2022-07-21T12:20:42;18.70;99.90
22623;DHT22;11478;51.094;7.030;2022-07-21T12:23:27;18.60;99.90
22623;DHT22;11478;51.094;7.030;2022-07-21T12:25:55;18.60;99.90
22623;DHT22;11478;51.094;7.030;2022-07-21T12:28:44;18.60;99.90
22623;DHT22;11478;51.094;7.030;2022-07-21T12:31:15;18.50;99.90
22623;DHT22;11478;51.094;7.030;2022-07-21T12:33:42;18.50;99.90
22623;DHT22;11478;51.094;7.030;2022-07-21T12:36:10;18.40;99.90
22623;DHT22;11478;51.094;7.030;2022-07-21T12:38:48;18.40;99.90
22623;DHT22;11478;51.094;7.030;2022-07-21T12:41:19;18.40;99.90
22623;DHT22;11478;51.094;7.030;2022-07-21T12:44:00;18.40;99.90
22623;DHT22;11478;51.094;7.030;2022-07-21T12:46:34;18.40;99.90
22623;DHT22;11478;51.094;7.030;2022-07-21T12:49:09;18.40;99.90
22623;DHT22;11478;51.094;7.030;2022-07-21T12:51:36;18.40;99.90
22623;DHT22;11478;51.094;7.030;2022-07-21T12:54:05;18.40;99.90
22623;DHT22;11478;51.094;7.030;2022-07-21T12:56:33;18.40;99.90
22623;DHT22;11478;51.094;7.030;2022-07-21T12:59:04;18.40;99.90
22623;DHT22;11478;51.094;7.030;2022-07-21T13:01:32;18.40;99.90
22623;DHT22;11478;51.094;7.030;2022-07-21T13:04:02;18.40;99.90
22623;DHT22;11478;51.094;7.030;2022-07-21T13:06:29;18.40;99.90
22623;DHT22;11478;51.094;7.030;2022-07-21T13:08:56;18.40;99.90
22623;DHT22;11478;51.094;7.030;2022-07-21T13:11:22;18.40;99.90
22623;DHT22;11478;51.094;7.030;2022-07-21T13:13:53;18.40;99.90
22623;DHT22;11478;51.094;7.030;2022-07-21T13:16:29;18.40;99.90
22623;DHT22;11478;51.094;7.030;2022-07-21T13:19:08;18.40;99.90
22623;DHT22;11478;51.094;7.030;2022-07-21T13:21:34;18.30;99.90
22623;DHT22;11478;51.094;7.030;2022-07-21T13:24:14;18.30;99.90
22623;DHT22;11478;51.094;7.030;2022-07-21T13:26:39;18.30;99.90
22623;DHT22;11478;51.094;7.030;2022-07-21T13:29:06;18.20;99.90
22623;DHT22;11478;51.094;7.030;2022-07-21T13:31:34;18.20;99.90
22623;DHT22;11478;51.094;7.030;2022-07-21T13:34:03;18.20;99.90
22623;DHT22;11478;51.094;7.030;2022-07-21T13:36:32;18.30;99.90
22623;DHT22;11478;51.094;7.030;2022-07-21T13:38:59;18.20;99.90
22623;DHT22;11478;51.094;7.030;2022-07-21T13:41:46;18.20;99.90
22623;DHT22;11478;51.094;7.030;2022-07-21T13:44:14;18.00;99.90
22623;DHT22;11478;51.094;7.030;2022-07-21T13:46:43;17.90;99.90
22623;DHT22;11478;51.094;7.030;2022-07-21T13:49:24;17.90;99.90
22623;DHT22;11478;51.094;7.030;2022-07-21T13:51:50;17.80;99.90
22623;DHT22;11478;51.094;7.030;2022-07-21T13:54:19;17.80;99.90
22623;DHT22;11478;51.094;7.030;2022-07-21T13:56:56;17.80;99.90
22623;DHT22;11478;51.094;7.030;2022-07-21T13:59:27;17.80;99.90
22623;DHT22;11478;51.094;7.030;2022-07-21T14:01:54;17.80;99.90
22623;DHT22;11478;51.094;7.030;2022-07-21T14:04:25;17.70;99.90
22623;DHT22;11478;51.094;7.030;2022-07-21T14:06:51;17.80;99.90
22623;DHT22;11478;51.094;7.030;2022-07-21T14:09:20;17.80;99.90
22623;DHT22;11478;51.094;7.030;2022-07-21T14:11:58;17.80;99.90
22623;DHT22;11478;51.094;7.030;2022-07-21T14:14:31;17.80;99.90
22623;DHT22;11478;51.094;7.030;2022-07-21T14:17:06;17.80;99.90
22623;DHT22;11478;51.094;7.030;2022-07-21T14:19:50;17.90;99.90
22623;DHT22;11478;51.094;7.030;2022-07-21T14:22:24;17.90;99.90
22623;DHT22;11478;51.094;7.030;2022-07-21T14:24:51;17.90;99.90
22623;DHT22;11478;51.094;7.030;2022-07-21T14:27:35;17.90;99.90
22623;DHT22;11478;51.094;7.030;2022-07-21T14:30:09;17.90;99.90
22623;DHT22;11478;51.094;7.030;2022-07-21T14:32:38;17.90;99.90
22623;DHT22;11478;51.094;7.030;2022-07-21T14:35:04;17.90;99.90
22623;DHT22;11478;51.094;7.030;2022-07-21T14:37:36;18.00;99.90
22623;DHT22;11478;51.094;7.030;2022-07-21T14:40:04;17.90;99.90
22623;DHT22;11478;51.094;7.030;2022-07-21T14:42:35;17.90;99.90
22623;DHT22;11478;51.094;7.030;2022-07-21T14:45:05;17.90;99.90
22623;DHT22;11478;51.094;7.030;2022-07-21T14:47:35;17.90;99.90
22623;DHT22;11478;51.094;7.030;2022-07-21T14:50:04;17.90;99.90
22623;DHT22;11478;51.094;7.030;2022-07-21T14:52:34;17.90;99.90
22623;DHT22;11478;51.094;7.030;2022-07-21T14:55:04;17.90;99.90
22623;DHT22;11478;51.094;7.030;2022-07-21T14:57:32;17.90;99.90
22623;DHT22;11478;51.094;7.030;2022-07-21T14:59:59;17.90;99.90
22623;DHT22;11478;51.094;7.030;2022-07-21T15:02:25;17.80;99.90
22623;DHT22;11478;51.094;7.030;2022-07-21T15:04:53;17.80;99.90
22623;DHT22;11478;51.094;7.030;2022-07-21T15:07:20;17.80;99.90
22623;DHT22;11478;51.094;7.030;2022-07-21T15:09:45;17.80;99.90
22623;DHT22;11478;51.094;7.030;2022-07-21T15:12:16;17.80;99.90
22623;DHT22;11478;51.094;7.030;2022-07-21T15:14:42;17.80;99.90
22623;DHT22;11478;51.094;7.030;2022-07-21T15:17:09;17.80;99.90
22623;DHT22;11478;51.094;7.030;2022-07-21T15:19:35;17.80;99.90
22623;DHT22;11478;51.094;7.030;2022-07-21T15:22:04;17.80;99.90
22623;DHT22;11478;51.094;7.030;2022-07-21T15:24:31;17.90;99.90
22623;DHT22;11478;51.094;7.030;2022-07-21T15:26:58;17.80;99.90
22623;DHT22;11478;51.094;7.030;2022-07-21T15:29:29;17.90;99.90
22623;DHT22;11478;51.094;7.030;2022-07-21T15:31:56;17.90;99.90
22623;DHT22;11478;51.094;7.030;2022-07-21T15:34:28;17.90;99.90
22623;DHT22;11478;51.094;7.030;2022-07-21T15:36:54;17.90;99.90
22623;DHT22;11478;51.094;7.030;2022-07-21T15:39:25;18.00;99.90
22623;DHT22;11478;51.094;7.030;2022-07-21T15:41:51;18.00;99.90
22623;DHT22;11478;51.094;7.030;2022-07-21T15:44:19;18.00;99.90
22623;DHT22;11478;51.094;7.030;2022-07-21T15:46:45;18.00;99.90
22623;DHT22;11478;51.094;7.030;2022-07-21T15:49:14;18.00;99.90
22623;DHT22;11478;51.094;7.030;2022-07-21T15:51:44;18.10;99.90
22623;DHT22;11478;51.094;7.030;2022-07-21T15:54:11;18.10;99.90
22623;DHT22;11478;51.094;7.030;2022-07-21T15:56:37;18.10;99.90
22623;DHT22;11478;51.094;7.030;2022-07-21T15:59:13;18.10;99.90
22623;DHT22;11478;51.094;7.030;2022-07-21T16:01:57;18.00;99.90
22623;DHT22;11478;51.094;7.030;2022-07-21T16:04:29;18.00;99.90
22623;DHT22;11478;51.094;7.030;2022-07-21T16:06:55;18.00;99.90
22623;DHT22;11478;51.094;7.030;2022-07-21T16:09:21;18.00;99.90
22623;DHT22;11478;51.094;7.030;2022-07-21T16:11:47;18.00;99.90
22623;DHT22;11478;51.094;7.030;2022-07-21T16:14:15;18.00;99.90
22623;DHT22;11478;51.094;7.030;2022-07-21T16:16:41;18.00;99.90
22623;DHT22;11478;51.094;7.030;2022-07-21T16:19:10;18.00;99.90
22623;DHT22;11478;51.094;7.030;2022-07-21T16:21:36;18.00;99.90
22623;DHT22;11478;51.094;7.030;2022-07-21T16:24:09;17.90;99.90
22623;DHT22;11478;51.094;7.030;2022-07-21T16:26:39;17.90;99.90
22623;DHT22;11478;51.094;7.030;2022-07-21T16:29:10;17.90;99.90
22623;DHT22;11478;51.094;7.030;2022-07-21T16:31:37;17.90;99.90
22623;DHT22;11478;51.094;7.030;2022-07-21T16:34:06;17.90;99.90
22623;DHT22;11478;51.094;7.030;2022-07-21T16:36:32;17.90;99.90
22623;DHT22;11478;51.094;7.030;2022-07-21T16:39:06;17.80;99.90
22623;DHT22;11478;51.094;7.030;2022-07-21T16:41:34;17.80;99.90
22623;DHT22;11478;51.094;7.030;2022-07-21T16:44:01;17.70;99.90
22623;DHT22;11478;51.094;7.030;2022-07-21T16:46:27;17.70;99.90
22623;DHT22;11478;51.094;7.030;2022-07-21T16:48:53;17.70;99.90
22623;DHT22;11478;51.094;7.030;2022-07-21T16:51:21;17.60;99.90
22623;DHT22;11478;51.094;7.030;2022-07-21T16:53:47;17.60;99.90
22623;DHT22;11478;51.094;7.030;2022-07-21T16:56:15;17.60;99.90
22623;DHT22;11478;51.094;7.030;2022-07-21T16:58:42;17.60;99.90
22623;DHT22;11478;51.094;7.030;2022-07-21T17:01:14;17.60;99.90
22623;DHT22;11478;51.094;7.030;2022-07-21T17:03:48;17.60;99.90
22623;DHT22;11478;51.094;7.030;2022-07-21T17:06:16;17.60;99.90
22623;DHT22;11478;51.094;7.030;2022-07-21T17:08:45;17.60;99.90
22623;DHT22;11478;51.094;7.030;2022-07-21T17:11:17;17.60;99.90
22623;DHT22;11478;51.094;7.030;2022-07-21T17:13:43;17.60;99.90
22623;DHT22;11478;51.094;7.030;2022-07-21T17:16:17;17.60;99.90
22623;DHT22;11478;51.094;7.030;2022-07-21T17:18:43;17.60;99.90
22623;DHT22;11478;51.094;7.030;2022-07-21T17:21:09;17.60;99.90
22623;DHT22;11478;51.094;7.030;2022-07-21T17:23:36;17.60;99.90
22623;DHT22;11478;51.094;7.030;2022-07-21T17:26:05;17.60;99.90
22623;DHT22;11478;51.094;7.030;2022-07-21T17:28:33;17.60;99.90
22623;DHT22;11478;51.094;7.030;2022-07-21T17:31:01;17.70;99.90
22623;DHT22;11478;51.094;7.030;2022-07-21T17:33:26;17.60;99.90
22623;DHT22;11478;51.094;7.030;2022-07-21T17:35:53;17.60;99.90
22623;DHT22;11478;51.094;7.030;2022-07-21T17:38:25;17.70;99.90
22623;DHT22;11478;51.094;7.030;2022-07-21T17:40:52;17.70;99.90
22623;DHT22;11478;51.094;7.030;2022-07-21T17:43:18;17.60;99.90
22623;DHT22;11478;51.094;7.030;2022-07-21T17:45:44;17.60;99.90
22623;DHT22;11478;51.094;7.030;2022-07-21T17:48:11;17.60;99.90
22623;DHT22;11478;51.094;7.030;2022-07-21T17:50:37;17.60;99.90
22623;DHT22;11478;51.094;7.030;2022-07-21T17:53:03;17.50;99.90
22623;DHT22;11478;51.094;7.030;2022-07-21T17:55:29;17.50;99.90
22623;DHT22;11478;51.094;7.030;2022-07-21T17:57:55;17.50;99.90
22623;DHT22;11478;51.094;7.030;2022-07-21T18:00:39;17.60;99.90
22623;DHT22;11478;51.094;7.030;2022-07-21T18:03:07;17.50;99.90
22623;DHT22;11478;51.094;7.030;2022-07-21T18:05:33;17.50;99.90
22623;DHT22;11478;51.094;7.030;2022-07-21T18:08:06;17.50;99.90
22623;DHT22;11478;51.094;7.030;2022-07-21T18:10:33;17.50;99.90
22623;DHT22;11478;51.094;7.030;2022-07-21T18:12:59;17.50;99.90
22623;DHT22;11478;51.094;7.030;2022-07-21T18:15:25;17.50;99.90
22623;DHT22;11478;51.094;7.030;2022-07-21T18:17:52;17.50;99.90
22623;DHT22;11478;51.094;7.030;2022-07-21T18:20:18;17.50;99.90
22623;DHT22;11478;51.094;7.030;2022-07-21T18:22:52;17.50;99.90
22623;DHT22;11478;51.094;7.030;2022-07-21T18:25:18;17.50;99.90
22623;DHT22;11478;51.094;7.030;2022-07-21T18:27:47;17.50;99.90
22623;DHT22;11478;51.094;7.030;2022-07-21T18:30:13;17.50;99.90
22623;DHT22;11478;51.094;7.030;2022-07-21T18:32:42;17.40;99.90
22623;DHT22;11478;51.094;7.030;2022-07-21T18:35:12;17.40;99.90
22623;DHT22;11478;51.094;7.030;2022-07-21T18:37:44;17.40;99.90
22623;DHT22;11478;51.094;7.030;2022-07-21T18:40:15;17.50;99.90
22623;DHT22;11478;51.094;7.030;2022-07-21T18:42:45;17.50;99.90
22623;DHT22;11478;51.094;7.030;2022-07-21T18:45:11;17.40;99.90
22623;DHT22;11478;51.094;7.030;2022-07-21T18:47:39;17.40;99.90
22623;DHT22;11478;51.094;7.030;2022-07-21T18:50:07;17.40;99.90
22623;DHT22;11478;51.094;7.030;2022-07-21T18:52:35;17.50;99.90